createdAt,value
2022-09-30T00:01:03.533Z,10.07
2022-09-30T00:03:34.255Z,9.73
2022-09-30T00:06:08.970Z,10.15
2022-09-30T00:08:39.189Z,10.45
2022-09-30T00:11:10.976Z,9.43
2022-09-30T00:13:40.167Z,9.43
2022-09-30T00:16:09.957Z,9.07
2022-09-30T00:18:38.087Z,9.23
2022-09-30T00:21:16.044Z,9.07
2022-09-30T00:23:45.059Z,9.40
2022-09-30T00:26:18.419Z,8.80
2022-09-30T00:28:52.897Z,8.75
2022-09-30T00:31:22.808Z,9.40
2022-09-30T00:34:07.347Z,9.02
2022-09-30T00:36:47.352Z,9.85
2022-09-30T00:39:22.010Z,9.45
2022-09-30T00:41:56.343Z,10.07
2022-09-30T00:45:05.395Z,10.40
2022-09-30T00:47:43.672Z,10.18
2022-09-30T00:50:32.352Z,10.68
2022-09-30T00:53:30.851Z,10.48
2022-09-30T00:56:05.533Z,10.35
2022-09-30T00:58:41.195Z,11.40
2022-09-30T01:01:10.155Z,11.63
2022-09-30T01:03:48.672Z,11.82
2022-09-30T01:06:22.013Z,12.00
2022-09-30T01:08:53.260Z,12.65
2022-09-30T01:11:21.209Z,11.35
2022-09-30T01:13:53.097Z,11.50
2022-09-30T01:16:30.760Z,10.90
2022-09-30T01:19:35.535Z,10.52
2022-09-30T01:22:26.443Z,9.18
2022-09-30T01:24:54.415Z,7.90
2022-09-30T01:27:31.532Z,6.68
2022-09-30T01:30:22.847Z,5.30
2022-09-30T01:33:02.989Z,5.78
2022-09-30T01:35:43.020Z,4.20
2022-09-30T01:38:45.314Z,3.65
2022-09-30T01:41:18.303Z,3.22
2022-09-30T01:44:04.558Z,2.62
2022-09-30T01:46:44.339Z,2.83
2022-09-30T01:49:27.207Z,2.90
2022-09-30T01:52:19.284Z,3.42
2022-09-30T01:55:09.201Z,3.22
2022-09-30T01:57:46.174Z,3.65
2022-09-30T02:00:17.891Z,3.80
2022-09-30T02:03:16.872Z,4.00
2022-09-30T02:05:56.032Z,4.43
2022-09-30T02:08:34.388Z,4.37
2022-09-30T02:11:13.130Z,5.18
2022-09-30T02:13:50.283Z,4.80
2022-09-30T02:16:26.114Z,5.40
2022-09-30T02:18:58.186Z,4.75
2022-09-30T02:21:33.182Z,5.60
2022-09-30T02:24:06.176Z,6.00
2022-09-30T02:26:38.214Z,5.75
2022-09-30T02:29:20.145Z,5.97
2022-09-30T02:31:59.129Z,5.62
2022-09-30T02:34:38.048Z,7.68
2022-09-30T02:37:17.755Z,7.90
2022-09-30T02:40:13.186Z,8.77
2022-09-30T02:42:42.080Z,8.80
2022-09-30T02:45:12.614Z,9.67
2022-09-30T02:47:46.272Z,8.90
2022-09-30T02:50:31.738Z,8.73
2022-09-30T02:53:08.346Z,9.35
2022-09-30T02:56:20.226Z,10.23
2022-09-30T02:58:53.175Z,9.98
2022-09-30T03:01:21.244Z,9.45
2022-09-30T03:04:01.852Z,10.10
2022-09-30T03:06:31.047Z,9.90
2022-09-30T03:09:01.545Z,9.95
2022-09-30T03:11:30.612Z,9.77
2022-09-30T03:14:43.247Z,9.98
2022-09-30T03:17:50.082Z,9.97
2022-09-30T03:20:33.944Z,9.80
2022-09-30T03:23:17.226Z,9.73
2022-09-30T03:26:17.346Z,9.50
2022-09-30T03:29:04.059Z,9.15
2022-09-30T03:32:09.772Z,9.02
2022-09-30T03:35:04.286Z,8.40
2022-09-30T03:37:35.695Z,8.50
2022-09-30T03:40:11.947Z,8.13
2022-09-30T03:42:45.965Z,7.93
2022-09-30T03:45:35.297Z,8.05
2022-09-30T03:48:07.221Z,8.55
2022-09-30T03:50:40.039Z,8.60
2022-09-30T03:53:13.248Z,8.82
2022-09-30T03:55:51.073Z,8.53
2022-09-30T03:58:23.611Z,9.40
2022-09-30T04:00:54.607Z,8.90
2022-09-30T04:03:33.474Z,9.00
2022-09-30T04:06:03.743Z,9.40
2022-09-30T04:08:35.004Z,9.50
2022-09-30T04:11:07.296Z,9.10
2022-09-30T04:13:35.386Z,8.75
2022-09-30T04:16:05.405Z,9.38
2022-09-30T04:18:38.637Z,8.93
2022-09-30T04:21:12.815Z,9.30
2022-09-30T04:23:42.229Z,9.07
2022-09-30T04:26:20.504Z,8.95
2022-09-30T04:28:49.322Z,9.13
2022-09-30T04:31:21.709Z,8.73
2022-09-30T04:33:52.882Z,10.48
2022-09-30T04:36:21.317Z,8.90
2022-09-30T04:38:50.098Z,8.70
2022-09-30T04:41:18.902Z,8.63
2022-09-30T04:43:51.982Z,8.38
2022-09-30T04:46:23.347Z,8.77
2022-09-30T04:48:55.370Z,8.60
2022-09-30T04:51:30.179Z,8.85
2022-09-30T04:53:59.289Z,9.13
2022-09-30T04:56:27.174Z,9.50
2022-09-30T04:58:54.996Z,9.35
2022-09-30T05:01:25.058Z,9.90
2022-09-30T05:03:55.001Z,10.00
2022-09-30T05:06:30.710Z,9.80
2022-09-30T05:09:13.123Z,10.10
2022-09-30T05:11:50.038Z,10.40
2022-09-30T05:14:22.481Z,10.25
2022-09-30T05:16:59.847Z,11.57
2022-09-30T05:19:28.392Z,11.75
2022-09-30T05:21:56.958Z,11.65
2022-09-30T05:24:30.293Z,11.65
2022-09-30T05:26:59.421Z,11.38
2022-09-30T05:29:32.113Z,11.23
2022-09-30T05:32:01.338Z,11.55
2022-09-30T05:34:30.616Z,11.88
2022-09-30T05:36:58.841Z,11.93
2022-09-30T05:39:30.059Z,11.65
2022-09-30T05:41:59.409Z,11.10
2022-09-30T05:44:27.919Z,10.80
2022-09-30T05:46:56.501Z,11.73
2022-09-30T05:49:27.578Z,11.48
2022-09-30T05:52:02.712Z,11.38
2022-09-30T05:54:30.746Z,10.93
2022-09-30T05:57:03.013Z,11.20
2022-09-30T05:59:33.771Z,11.18
2022-09-30T06:02:10.043Z,11.48
2022-09-30T06:04:38.746Z,11.12
2022-09-30T06:07:10.474Z,11.00
2022-09-30T06:09:40.420Z,11.60
2022-09-30T06:12:16.913Z,10.63
2022-09-30T06:14:46.283Z,10.82
2022-09-30T06:17:14.149Z,11.05
2022-09-30T06:19:42.592Z,11.05
2022-09-30T06:22:11.080Z,10.80
2022-09-30T06:24:46.006Z,10.50
2022-09-30T06:27:16.728Z,10.80
2022-09-30T06:29:48.472Z,10.05
2022-09-30T06:32:20.372Z,10.15
2022-09-30T06:34:51.356Z,9.40
2022-09-30T06:37:19.801Z,9.85
2022-09-30T06:39:47.927Z,9.23
2022-09-30T06:42:18.015Z,9.40
2022-09-30T06:44:53.611Z,8.45
2022-09-30T06:47:26.101Z,9.50
2022-09-30T06:49:59.249Z,9.97
2022-09-30T06:52:27.761Z,9.55
2022-09-30T06:54:59.691Z,8.77
2022-09-30T06:57:28.116Z,8.48
2022-09-30T06:59:56.918Z,8.20
2022-09-30T07:02:25.061Z,8.57
2022-09-30T07:04:53.634Z,8.25
2022-09-30T07:07:22.477Z,7.03
2022-09-30T07:09:56.379Z,7.15
2022-09-30T07:12:42.812Z,7.27
2022-09-30T07:15:14.077Z,6.62
2022-09-30T07:17:42.376Z,6.35
2022-09-30T07:20:10.676Z,6.35
2022-09-30T07:22:39.622Z,6.00
2022-09-30T07:25:12.716Z,6.28
2022-09-30T07:27:41.497Z,6.60
2022-09-30T07:30:15.150Z,6.55
2022-09-30T07:32:50.270Z,6.95
2022-09-30T07:35:21.563Z,7.03
2022-09-30T07:38:01.284Z,7.65
2022-09-30T07:40:31.951Z,7.50
2022-09-30T07:43:00.690Z,8.18
2022-09-30T07:45:31.542Z,8.10
2022-09-30T07:47:59.636Z,8.75
2022-09-30T07:50:29.798Z,8.57
2022-09-30T07:53:00.661Z,8.50
2022-09-30T07:55:40.574Z,9.00
2022-09-30T07:58:11.430Z,9.15
2022-09-30T08:00:42.846Z,9.25
2022-09-30T08:03:11.843Z,10.00
2022-09-30T08:05:41.744Z,9.38
2022-09-30T08:08:13.705Z,9.77
2022-09-30T08:10:54.354Z,11.10
2022-09-30T08:13:25.374Z,11.10
2022-09-30T08:15:53.433Z,11.40
2022-09-30T08:18:29.199Z,11.73
2022-09-30T08:21:04.773Z,12.73
2022-09-30T08:23:34.271Z,12.20
2022-09-30T08:26:07.673Z,12.57
2022-09-30T08:28:38.969Z,11.95
2022-09-30T08:31:20.238Z,12.30
2022-09-30T08:36:49.087Z,13.07
2022-09-30T08:39:23.698Z,12.90
2022-09-30T08:42:42.432Z,12.55
2022-09-30T08:45:31.780Z,12.52
2022-09-30T08:48:11.183Z,12.32
2022-09-30T08:50:51.640Z,12.10
2022-09-30T08:53:33.195Z,11.33
2022-09-30T08:56:06.310Z,10.73
2022-09-30T08:58:41.998Z,10.48
2022-09-30T09:01:35.844Z,10.18
2022-09-30T09:04:09.559Z,10.20
2022-09-30T09:06:47.295Z,9.40
2022-09-30T09:09:30.503Z,8.32
2022-09-30T09:12:09.024Z,7.30
2022-09-30T09:15:00.703Z,7.62
2022-09-30T09:17:35.378Z,6.78
2022-09-30T09:20:14.919Z,6.30
2022-09-30T09:22:44.657Z,5.60
2022-09-30T09:25:16.817Z,4.57
2022-09-30T09:28:07.428Z,3.78
2022-09-30T09:30:47.439Z,3.50
2022-09-30T09:33:23.346Z,3.50
2022-09-30T09:36:28.637Z,3.78
2022-09-30T09:39:26.513Z,4.12
2022-09-30T09:42:17.382Z,4.05
2022-09-30T09:45:03.365Z,4.32
2022-09-30T09:47:32.415Z,4.60
2022-09-30T09:50:04.761Z,4.50
2022-09-30T09:52:58.596Z,4.55
2022-09-30T09:55:28.139Z,4.43
2022-09-30T09:58:14.102Z,4.50
2022-09-30T10:00:51.287Z,5.05
2022-09-30T10:03:25.828Z,4.68
2022-09-30T10:06:15.441Z,4.53
2022-09-30T10:08:56.003Z,4.93
2022-09-30T10:11:31.302Z,5.00
2022-09-30T10:14:01.611Z,5.03
2022-09-30T10:16:41.838Z,4.70
2022-09-30T10:19:27.386Z,4.60
2022-09-30T10:22:28.488Z,4.50
2022-09-30T10:25:14.979Z,4.20
2022-09-30T10:27:52.827Z,4.22
2022-09-30T10:30:41.311Z,4.22
2022-09-30T10:33:34.535Z,3.50
2022-09-30T10:36:14.578Z,3.87
2022-09-30T10:39:02.520Z,3.55
2022-09-30T10:41:39.346Z,3.25
2022-09-30T10:44:17.977Z,3.17
2022-09-30T10:46:48.844Z,3.20
2022-09-30T10:49:31.645Z,3.15
2022-09-30T10:52:01.726Z,3.20
2022-09-30T10:54:40.626Z,3.45
2022-09-30T10:57:24.542Z,2.90
2022-09-30T11:00:20.410Z,2.20
2022-09-30T11:02:59.381Z,2.53
2022-09-30T11:05:41.246Z,2.15
2022-09-30T11:08:22.910Z,2.47
2022-09-30T11:11:14.716Z,2.00
2022-09-30T11:14:23.678Z,2.10
2022-09-30T11:17:31.861Z,2.10
2022-09-30T11:20:16.622Z,2.00
2022-09-30T11:22:54.521Z,1.52
2022-09-30T11:25:33.749Z,1.48
2022-09-30T11:28:09.859Z,1.17
2022-09-30T11:31:07.253Z,1.50
2022-09-30T11:34:00.221Z,1.40
2022-09-30T11:36:28.297Z,1.10
2022-09-30T11:39:18.296Z,1.30
2022-09-30T11:42:04.059Z,1.10
2022-09-30T11:44:41.673Z,1.20
2022-09-30T11:47:38.020Z,1.30
2022-09-30T11:50:28.309Z,1.35
2022-09-30T11:53:15.336Z,1.13
2022-09-30T11:56:07.259Z,1.30
2022-09-30T11:58:42.174Z,1.30
2022-09-30T12:01:21.285Z,1.30
2022-09-30T12:03:57.829Z,1.45
2022-09-30T12:06:32.114Z,1.37
2022-09-30T12:09:08.475Z,1.40
2022-09-30T12:11:42.544Z,1.60
2022-09-30T12:14:23.699Z,1.40
2022-09-30T12:16:51.840Z,1.50
2022-09-30T12:19:28.127Z,1.30
2022-09-30T12:22:01.324Z,1.30
2022-09-30T12:24:40.703Z,1.30
2022-09-30T12:27:16.079Z,1.20
2022-09-30T12:30:18.898Z,1.10
2022-09-30T12:33:05.746Z,1.17
2022-09-30T12:36:09.307Z,1.20
2022-09-30T12:38:50.330Z,1.30
2022-09-30T12:41:40.941Z,1.37
2022-09-30T12:44:46.385Z,1.80
2022-09-30T12:47:46.039Z,1.70
2022-09-30T12:50:24.033Z,1.70
2022-09-30T12:52:54.278Z,2.00
2022-09-30T12:55:32.340Z,1.90
2022-09-30T12:58:04.160Z,1.92
2022-09-30T13:00:38.196Z,1.90
2022-09-30T13:03:18.564Z,2.10
2022-09-30T13:06:11.966Z,1.90
2022-09-30T13:08:52.315Z,1.85
2022-09-30T13:11:42.226Z,1.80
2022-09-30T13:14:35.269Z,1.80
2022-09-30T13:17:12.397Z,2.60
2022-09-30T13:19:48.329Z,3.62
2022-09-30T13:22:24.326Z,4.40
2022-09-30T13:25:03.469Z,4.00
2022-09-30T13:27:39.486Z,3.75
2022-09-30T13:30:17.848Z,3.90
2022-09-30T13:32:51.295Z,2.70
2022-09-30T13:35:46.729Z,2.80
2022-09-30T13:38:15.887Z,2.47
2022-09-30T13:41:01.748Z,2.67
2022-09-30T13:43:40.036Z,2.30
2022-09-30T13:46:28.769Z,2.10
2022-09-30T13:49:35.967Z,1.92
2022-09-30T13:52:16.409Z,2.25
2022-09-30T13:55:15.756Z,3.10
2022-09-30T13:58:07.591Z,2.57
2022-09-30T14:01:06.938Z,2.72
2022-09-30T14:04:02.223Z,2.53
2022-09-30T14:06:56.731Z,1.70
2022-09-30T14:09:32.696Z,1.80
2022-09-30T14:12:20.181Z,1.80
2022-09-30T14:15:12.837Z,2.00
2022-09-30T14:18:18.705Z,1.98
2022-09-30T14:21:22.976Z,1.87
2022-09-30T14:24:24.280Z,1.80
2022-09-30T14:27:31.287Z,2.50
2022-09-30T14:30:21.364Z,1.80
2022-09-30T14:32:56.177Z,2.00
2022-09-30T14:35:29.282Z,2.65
2022-09-30T14:38:01.113Z,2.90
2022-09-30T14:40:35.042Z,2.75
2022-09-30T14:43:13.285Z,2.42
2022-09-30T14:45:45.637Z,2.87
2022-09-30T14:48:21.898Z,2.80
2022-09-30T14:50:58.233Z,3.30
2022-09-30T14:53:38.934Z,2.90
2022-09-30T14:56:23.669Z,2.58
2022-09-30T14:58:53.305Z,2.55
2022-09-30T15:01:23.726Z,2.30
2022-09-30T15:04:10.777Z,2.50
2022-09-30T15:06:48.037Z,2.80
2022-09-30T15:09:18.183Z,2.55
2022-09-30T15:11:47.282Z,2.40
2022-09-30T15:14:21.160Z,2.50
2022-09-30T15:16:55.053Z,2.62
2022-09-30T15:19:26.488Z,2.50
2022-09-30T15:21:59.127Z,3.00
2022-09-30T15:24:32.038Z,2.73
2022-09-30T15:27:04.801Z,2.90
2022-09-30T15:29:33.123Z,2.80
2022-09-30T15:32:23.263Z,3.10
2022-09-30T15:35:16.058Z,3.70
2022-09-30T15:37:46.179Z,3.47
2022-09-30T15:40:33.779Z,3.40
2022-09-30T15:43:07.090Z,3.90
2022-09-30T15:45:41.150Z,3.50
2022-09-30T15:48:27.765Z,3.67
2022-09-30T15:51:06.194Z,3.28
2022-09-30T15:53:45.494Z,3.40
2022-09-30T15:56:35.758Z,3.00
2022-09-30T15:59:13.344Z,2.80
2022-09-30T16:01:51.305Z,3.10
2022-09-30T16:04:31.916Z,2.97
2022-09-30T16:07:13.544Z,3.10
2022-09-30T16:09:41.880Z,2.42
2022-09-30T16:12:23.148Z,2.80
2022-09-30T16:14:53.937Z,2.80
2022-09-30T16:17:34.172Z,2.80
2022-09-30T16:20:08.495Z,2.83
2022-09-30T16:22:42.794Z,3.25
2022-09-30T16:25:30.871Z,3.40
2022-09-30T16:28:12.612Z,3.90
2022-09-30T16:30:44.046Z,4.15
2022-09-30T16:33:14.942Z,4.35
2022-09-30T16:35:56.936Z,4.87
2022-09-30T16:38:25.583Z,5.62
2022-09-30T16:40:55.912Z,4.82
2022-09-30T16:43:29.343Z,4.80
2022-09-30T16:46:02.836Z,5.30
2022-09-30T16:48:32.230Z,5.00
2022-09-30T16:51:16.029Z,5.60
2022-09-30T16:53:48.242Z,4.10
2022-09-30T16:56:27.389Z,6.00
2022-09-30T16:59:07.865Z,6.80
2022-09-30T17:01:37.174Z,8.73
2022-09-30T17:04:12.966Z,12.55
2022-09-30T17:06:47.781Z,8.57
2022-09-30T17:09:16.071Z,14.65
2022-09-30T17:11:50.055Z,11.80
2022-09-30T17:14:18.135Z,10.90
2022-09-30T17:16:47.247Z,11.83
2022-09-30T17:19:30.716Z,14.23
2022-09-30T17:22:05.037Z,12.80
2022-09-30T17:24:36.885Z,11.98
2022-09-30T17:27:06.972Z,9.75
2022-09-30T17:29:47.989Z,12.50
2022-09-30T17:32:25.947Z,9.68
2022-09-30T17:34:56.130Z,11.65
2022-09-30T17:37:28.544Z,13.13
2022-09-30T17:39:59.189Z,11.90
2022-09-30T17:42:46.835Z,11.70
2022-09-30T17:45:21.279Z,11.90
2022-09-30T17:47:50.403Z,12.18
2022-09-30T17:50:22.420Z,12.20
2022-09-30T17:52:52.549Z,13.00
2022-09-30T17:55:22.624Z,16.37
2022-09-30T17:57:54.686Z,15.40
2022-09-30T18:00:25.801Z,15.25
2022-09-30T18:02:55.242Z,17.55
2022-09-30T18:05:25.874Z,14.67
2022-09-30T18:07:54.738Z,13.53
2022-09-30T18:10:26.470Z,13.20
2022-09-30T18:12:55.800Z,16.45
2022-09-30T18:15:31.056Z,14.50
2022-09-30T18:18:00.848Z,12.93
2022-09-30T18:20:33.420Z,13.50
2022-09-30T18:23:02.973Z,13.43
2022-09-30T18:25:37.838Z,17.80
2022-09-30T18:28:12.945Z,15.77
2022-09-30T18:30:46.954Z,14.53
2022-09-30T18:33:17.627Z,12.25
2022-09-30T18:35:46.723Z,11.65
2022-09-30T18:38:15.167Z,9.73
2022-09-30T18:40:44.195Z,9.43
2022-09-30T18:43:15.311Z,8.95
2022-09-30T18:45:43.974Z,8.98
2022-09-30T18:48:13.634Z,7.93
2022-09-30T18:50:51.541Z,7.50
2022-09-30T18:53:21.270Z,11.82
2022-09-30T18:55:49.589Z,19.33
2022-09-30T18:58:30.916Z,18.58
2022-09-30T19:01:08.559Z,13.15
2022-09-30T19:03:43.365Z,13.00
2022-09-30T19:06:22.070Z,10.80
2022-09-30T19:08:51.210Z,8.43
2022-09-30T19:11:31.056Z,9.10
2022-09-30T19:14:11.178Z,8.30
2022-09-30T19:16:52.706Z,6.82
2022-09-30T19:19:39.500Z,6.35
2022-09-30T19:22:25.794Z,6.55
2022-09-30T19:25:12.211Z,7.18
2022-09-30T19:27:43.325Z,7.37
2022-09-30T19:30:19.572Z,6.70
2022-09-30T19:33:00.324Z,6.87
2022-09-30T19:35:39.499Z,6.97
2022-09-30T19:38:14.499Z,7.07
2022-09-30T19:41:04.906Z,7.00
2022-09-30T19:43:34.545Z,7.20
2022-09-30T19:46:05.860Z,7.60
2022-09-30T19:48:39.958Z,8.80
2022-09-30T19:51:14.957Z,9.00
2022-09-30T19:54:06.095Z,8.23
2022-09-30T19:56:46.681Z,7.43
2022-09-30T19:59:19.722Z,7.00
2022-09-30T20:01:53.053Z,7.10
2022-09-30T20:04:27.572Z,7.45
2022-09-30T20:06:59.425Z,7.67
2022-09-30T20:09:37.667Z,7.70
2022-09-30T20:12:09.153Z,8.18
2022-09-30T20:15:06.416Z,7.60
2022-09-30T20:17:44.249Z,7.85
2022-09-30T20:20:43.668Z,7.30
2022-09-30T20:23:23.515Z,7.50
2022-09-30T20:26:04.455Z,7.90
2022-09-30T20:28:33.103Z,7.00
2022-09-30T20:31:16.937Z,6.25
2022-09-30T20:34:03.679Z,6.15
2022-09-30T20:36:37.067Z,6.80
2022-09-30T20:39:06.981Z,6.55
2022-09-30T20:41:45.867Z,6.10
2022-09-30T20:44:14.272Z,5.68
2022-09-30T20:46:46.018Z,6.12
2022-09-30T20:49:21.222Z,5.93
2022-09-30T20:51:54.122Z,6.10
2022-09-30T20:54:23.099Z,6.12
2022-09-30T20:57:07.131Z,6.07
2022-09-30T20:59:38.900Z,6.90
2022-09-30T21:02:07.633Z,6.00
2022-09-30T21:04:36.106Z,6.95
2022-09-30T21:07:04.200Z,6.03
2022-09-30T21:09:35.090Z,6.72
2022-09-30T21:12:08.608Z,7.22
2022-09-30T21:14:40.467Z,7.30
2022-09-30T21:17:08.861Z,7.53
2022-09-30T21:19:38.316Z,8.00
2022-09-30T21:22:17.432Z,7.30
2022-09-30T21:24:49.989Z,8.30
2022-09-30T21:27:18.721Z,8.00
2022-09-30T21:29:50.460Z,9.10
2022-09-30T21:32:21.075Z,8.90
2022-09-30T21:34:48.948Z,9.73
2022-09-30T21:37:17.099Z,8.68
2022-09-30T21:39:48.444Z,9.68
2022-09-30T21:42:16.674Z,9.57
2022-09-30T21:44:45.498Z,9.00
2022-09-30T21:47:17.146Z,8.95
2022-09-30T21:49:45.366Z,8.68
2022-09-30T21:52:13.611Z,9.33
2022-09-30T21:54:41.739Z,9.30
2022-09-30T21:57:09.344Z,9.48
2022-09-30T21:59:38.793Z,9.35
2022-09-30T22:02:06.609Z,8.98
2022-09-30T22:04:42.117Z,9.13
2022-09-30T22:07:09.956Z,8.80
2022-09-30T22:09:42.976Z,8.60
2022-09-30T22:12:14.768Z,8.77
2022-09-30T22:14:44.737Z,9.27
2022-09-30T22:17:15.924Z,8.47
2022-09-30T22:19:46.526Z,8.60
2022-09-30T22:22:14.146Z,8.77
2022-09-30T22:24:44.280Z,7.95
2022-09-30T22:27:17.607Z,8.15
2022-09-30T22:29:45.545Z,7.85
2022-09-30T22:32:13.851Z,8.30
2022-09-30T22:35:02.596Z,8.30
2022-09-30T22:37:49.473Z,8.73
2022-09-30T22:40:17.487Z,9.40
2022-09-30T22:42:47.991Z,9.70
2022-09-30T22:45:20.220Z,9.73
2022-09-30T22:47:47.857Z,10.60
2022-09-30T22:50:19.696Z,10.40
2022-09-30T22:52:48.591Z,10.48
2022-09-30T22:55:16.903Z,11.35
2022-09-30T22:57:44.325Z,11.70
2022-09-30T23:00:20.485Z,12.23
2022-09-30T23:02:50.761Z,11.65
2022-09-30T23:05:21.040Z,10.00
2022-09-30T23:07:48.806Z,10.57
2022-09-30T23:10:25.372Z,10.80
2022-09-30T23:12:53.422Z,11.05
2022-09-30T23:15:20.810Z,9.70
2022-09-30T23:17:48.375Z,9.23
2022-09-30T23:20:16.332Z,9.18
2022-09-30T23:22:44.040Z,9.20
2022-09-30T23:25:26.384Z,9.70
2022-09-30T23:27:54.032Z,9.93
2022-09-30T23:30:21.414Z,9.38
2022-09-30T23:32:56.503Z,9.70
2022-09-30T23:35:26.750Z,10.45
2022-09-30T23:37:54.397Z,10.30
2022-09-30T23:40:24.092Z,10.02
2022-09-30T23:42:51.751Z,10.48
2022-09-30T23:45:19.703Z,10.65
2022-09-30T23:47:48.371Z,10.15
2022-09-30T23:50:16.369Z,10.07
2022-09-30T23:52:44.363Z,10.30
2022-09-30T23:55:11.727Z,9.73
2022-09-30T23:57:39.947Z,10.80
